sensor_id;sensor_type;location;lat;lon;timestamp;P1;durP1;ratioP1;P2;durP2;ratioP2
50393;SDS011;36308;46.312;25.288;2023-02-28T00:01:20;26.27;;;14.40;;
50393;SDS011;36308;46.312;25.288;2023-02-28T00:03:46;26.23;;;15.18;;
50393;SDS011;36308;46.312;25.288;2023-02-28T00:06:12;45.95;;;23.35;;
50393;SDS011;36308;46.312;25.288;2023-02-28T00:08:37;52.45;;;25.02;;
50393;SDS011;36308;46.312;25.288;2023-02-28T00:11:03;38.90;;;19.95;;
50393;SDS011;36308;46.312;25.288;2023-02-28T00:13:31;32.22;;;17.90;;
50393;SDS011;36308;46.312;25.288;2023-02-28T00:16:05;29.80;;;16.50;;
50393;SDS011;36308;46.312;25.288;2023-02-28T00:18:35;25.70;;;14.77;;
50393;SDS011;36308;46.312;25.288;2023-02-28T00:21:01;28.00;;;16.02;;
50393;SDS011;36308;46.312;25.288;2023-02-28T00:23:27;35.97;;;18.08;;
50393;SDS011;36308;46.312;25.288;2023-02-28T00:25:53;28.52;;;15.23;;
50393;SDS011;36308;46.312;25.288;2023-02-28T00:28:19;23.27;;;14.15;;
50393;SDS011;36308;46.312;25.288;2023-02-28T00:30:45;29.90;;;16.67;;
50393;SDS011;36308;46.312;25.288;2023-02-28T00:33:11;24.48;;;14.88;;
50393;SDS011;36308;46.312;25.288;2023-02-28T00:35:36;26.90;;;15.95;;
50393;SDS011;36308;46.312;25.288;2023-02-28T00:38:02;23.30;;;14.23;;
50393;SDS011;36308;46.312;25.288;2023-02-28T00:40:28;21.35;;;13.35;;
50393;SDS011;36308;46.312;25.288;2023-02-28T00:42:54;19.95;;;12.00;;
50393;SDS011;36308;46.312;25.288;2023-02-28T00:45:19;16.92;;;11.18;;
50393;SDS011;36308;46.312;25.288;2023-02-28T00:47:45;16.98;;;11.20;;
50393;SDS011;36308;46.312;25.288;2023-02-28T00:50:11;18.08;;;11.20;;
50393;SDS011;36308;46.312;25.288;2023-02-28T00:52:37;18.95;;;11.52;;
50393;SDS011;36308;46.312;25.288;2023-02-28T00:55:02;18.88;;;11.57;;
50393;SDS011;36308;46.312;25.288;2023-02-28T00:57:28;17.92;;;11.65;;
50393;SDS011;36308;46.312;25.288;2023-02-28T00:59:54;20.15;;;11.98;;
50393;SDS011;36308;46.312;25.288;2023-02-28T01:02:20;17.55;;;12.02;;
50393;SDS011;36308;46.312;25.288;2023-02-28T01:04:47;21.10;;;11.95;;
50393;SDS011;36308;46.312;25.288;2023-02-28T01:07:12;20.55;;;12.32;;
50393;SDS011;36308;46.312;25.288;2023-02-28T01:09:39;21.17;;;14.07;;
50393;SDS011;36308;46.312;25.288;2023-02-28T01:12:06;18.88;;;12.75;;
50393;SDS011;36308;46.312;25.288;2023-02-28T01:14:32;20.00;;;12.35;;
50393;SDS011;36308;46.312;25.288;2023-02-28T01:16:59;19.05;;;11.48;;
50393;SDS011;36308;46.312;25.288;2023-02-28T01:19:25;16.95;;;11.55;;
50393;SDS011;36308;46.312;25.288;2023-02-28T01:21:50;18.95;;;12.30;;
50393;SDS011;36308;46.312;25.288;2023-02-28T01:24:16;18.80;;;12.07;;
50393;SDS011;36308;46.312;25.288;2023-02-28T01:26:41;19.50;;;12.38;;
50393;SDS011;36308;46.312;25.288;2023-02-28T01:29:06;16.98;;;11.73;;
50393;SDS011;36308;46.312;25.288;2023-02-28T01:31:32;19.70;;;12.38;;
50393;SDS011;36308;46.312;25.288;2023-02-28T01:33:58;21.48;;;12.40;;
50393;SDS011;36308;46.312;25.288;2023-02-28T01:36:23;19.52;;;13.15;;
50393;SDS011;36308;46.312;25.288;2023-02-28T01:38:50;22.05;;;13.60;;
50393;SDS011;36308;46.312;25.288;2023-02-28T01:41:27;20.50;;;13.23;;
50393;SDS011;36308;46.312;25.288;2023-02-28T01:44:00;27.75;;;17.25;;
50393;SDS011;36308;46.312;25.288;2023-02-28T01:46:31;37.35;;;23.23;;
50393;SDS011;36308;46.312;25.288;2023-02-28T01:49:00;44.20;;;27.27;;
50393;SDS011;36308;46.312;25.288;2023-02-28T01:51:35;42.00;;;25.48;;
50393;SDS011;36308;46.312;25.288;2023-02-28T01:54:22;37.67;;;21.73;;
50393;SDS011;36308;46.312;25.288;2023-02-28T01:56:55;33.45;;;19.90;;
50393;SDS011;36308;46.312;25.288;2023-02-28T01:59:33;32.13;;;19.90;;
50393;SDS011;36308;46.312;25.288;2023-02-28T02:02:04;38.70;;;24.58;;
50393;SDS011;36308;46.312;25.288;2023-02-28T02:04:35;38.97;;;23.88;;
50393;SDS011;36308;46.312;25.288;2023-02-28T02:07:04;31.80;;;20.65;;
50393;SDS011;36308;46.312;25.288;2023-02-28T02:09:30;43.15;;;25.73;;
50393;SDS011;36308;46.312;25.288;2023-02-28T02:11:55;31.70;;;19.50;;
50393;SDS011;36308;46.312;25.288;2023-02-28T02:14:29;27.77;;;17.20;;
50393;SDS011;36308;46.312;25.288;2023-02-28T02:22:21;38.33;;;22.42;;
50393;SDS011;36308;46.312;25.288;2023-02-28T02:27:40;59.00;;;34.97;;
50393;SDS011;36308;46.312;25.288;2023-02-28T02:36:13;49.20;;;30.17;;
50393;SDS011;36308;46.312;25.288;2023-02-28T02:46:57;37.95;;;22.90;;
50393;SDS011;36308;46.312;25.288;2023-02-28T02:49:30;42.10;;;23.50;;
50393;SDS011;36308;46.312;25.288;2023-02-28T02:51:57;37.60;;;21.35;;
50393;SDS011;36308;46.312;25.288;2023-02-28T02:54:29;33.78;;;20.70;;
50393;SDS011;36308;46.312;25.288;2023-02-28T02:57:00;28.13;;;18.40;;
50393;SDS011;36308;46.312;25.288;2023-02-28T02:59:30;25.05;;;17.27;;
50393;SDS011;36308;46.312;25.288;2023-02-28T03:02:01;47.97;;;30.67;;
50393;SDS011;36308;46.312;25.288;2023-02-28T03:04:31;42.47;;;27.27;;
50393;SDS011;36308;46.312;25.288;2023-02-28T03:07:00;37.95;;;23.52;;
50393;SDS011;36308;46.312;25.288;2023-02-28T03:09:25;44.25;;;29.30;;
50393;SDS011;36308;46.312;25.288;2023-02-28T03:11:53;35.95;;;23.23;;
50393;SDS011;36308;46.312;25.288;2023-02-28T03:19:54;29.10;;;16.70;;
50393;SDS011;36308;46.312;25.288;2023-02-28T03:22:27;27.08;;;16.55;;
50393;SDS011;36308;46.312;25.288;2023-02-28T03:25:32;28.85;;;19.27;;
50393;SDS011;36308;46.312;25.288;2023-02-28T03:33:07;31.63;;;19.65;;
50393;SDS011;36308;46.312;25.288;2023-02-28T03:35:59;32.35;;;19.83;;
50393;SDS011;36308;46.312;25.288;2023-02-28T03:41:16;26.98;;;17.10;;
50393;SDS011;36308;46.312;25.288;2023-02-28T03:43:48;30.58;;;17.45;;
50393;SDS011;36308;46.312;25.288;2023-02-28T03:48:51;34.92;;;21.75;;
50393;SDS011;36308;46.312;25.288;2023-02-28T03:51:26;32.95;;;20.58;;
50393;SDS011;36308;46.312;25.288;2023-02-28T03:53:56;39.08;;;23.38;;
50393;SDS011;36308;46.312;25.288;2023-02-28T03:56:34;36.45;;;20.70;;
50393;SDS011;36308;46.312;25.288;2023-02-28T03:59:13;26.30;;;16.73;;
50393;SDS011;36308;46.312;25.288;2023-02-28T04:01:40;29.30;;;17.30;;
50393;SDS011;36308;46.312;25.288;2023-02-28T04:04:08;25.98;;;16.17;;
50393;SDS011;36308;46.312;25.288;2023-02-28T04:06:35;23.35;;;15.88;;
50393;SDS011;36308;46.312;25.288;2023-02-28T04:09:02;20.95;;;13.55;;
50393;SDS011;36308;46.312;25.288;2023-02-28T04:13:57;21.27;;;12.93;;
50393;SDS011;36308;46.312;25.288;2023-02-28T04:16:23;17.65;;;12.05;;
50393;SDS011;36308;46.312;25.288;2023-02-28T04:18:48;19.77;;;13.20;;
50393;SDS011;36308;46.312;25.288;2023-02-28T04:21:13;20.48;;;13.90;;
50393;SDS011;36308;46.312;25.288;2023-02-28T04:23:39;23.92;;;13.13;;
50393;SDS011;36308;46.312;25.288;2023-02-28T04:26:05;20.48;;;13.32;;
50393;SDS011;36308;46.312;25.288;2023-02-28T04:28:31;26.42;;;16.25;;
50393;SDS011;36308;46.312;25.288;2023-02-28T04:30:59;28.35;;;17.13;;
50393;SDS011;36308;46.312;25.288;2023-02-28T04:33:26;38.08;;;24.05;;
50393;SDS011;36308;46.312;25.288;2023-02-28T04:35:58;31.95;;;20.00;;
50393;SDS011;36308;46.312;25.288;2023-02-28T04:38:25;31.20;;;20.25;;
50393;SDS011;36308;46.312;25.288;2023-02-28T04:40:51;23.88;;;15.38;;
50393;SDS011;36308;46.312;25.288;2023-02-28T04:43:16;24.27;;;15.50;;
50393;SDS011;36308;46.312;25.288;2023-02-28T04:45:41;16.45;;;10.32;;
50393;SDS011;36308;46.312;25.288;2023-02-28T04:48:07;13.32;;;7.75;;
50393;SDS011;36308;46.312;25.288;2023-02-28T04:50:32;11.05;;;7.40;;
50393;SDS011;36308;46.312;25.288;2023-02-28T04:52:58;13.40;;;7.45;;
50393;SDS011;36308;46.312;25.288;2023-02-28T04:55:23;20.02;;;13.15;;
50393;SDS011;36308;46.312;25.288;2023-02-28T04:57:49;28.35;;;15.38;;
50393;SDS011;36308;46.312;25.288;2023-02-28T05:00:14;32.00;;;19.35;;
50393;SDS011;36308;46.312;25.288;2023-02-28T05:02:41;43.15;;;23.60;;
50393;SDS011;36308;46.312;25.288;2023-02-28T05:05:07;52.17;;;28.50;;
50393;SDS011;36308;46.312;25.288;2023-02-28T05:07:33;42.25;;;27.52;;
50393;SDS011;36308;46.312;25.288;2023-02-28T05:09:59;50.53;;;31.05;;
50393;SDS011;36308;46.312;25.288;2023-02-28T05:12:24;51.55;;;31.63;;
50393;SDS011;36308;46.312;25.288;2023-02-28T05:14:50;63.55;;;36.10;;
50393;SDS011;36308;46.312;25.288;2023-02-28T05:17:15;63.45;;;35.47;;
50393;SDS011;36308;46.312;25.288;2023-02-28T05:19:41;66.80;;;35.33;;
50393;SDS011;36308;46.312;25.288;2023-02-28T05:22:11;55.95;;;30.10;;
50393;SDS011;36308;46.312;25.288;2023-02-28T05:24:38;53.58;;;29.70;;
50393;SDS011;36308;46.312;25.288;2023-02-28T05:27:04;52.80;;;29.15;;
50393;SDS011;36308;46.312;25.288;2023-02-28T05:29:29;45.65;;;25.75;;
50393;SDS011;36308;46.312;25.288;2023-02-28T05:31:55;43.80;;;24.02;;
50393;SDS011;36308;46.312;25.288;2023-02-28T05:34:20;46.58;;;24.40;;
50393;SDS011;36308;46.312;25.288;2023-02-28T05:36:46;47.08;;;25.52;;
50393;SDS011;36308;46.312;25.288;2023-02-28T05:39:11;42.00;;;24.58;;
50393;SDS011;36308;46.312;25.288;2023-02-28T05:41:38;44.50;;;23.10;;
50393;SDS011;36308;46.312;25.288;2023-02-28T05:44:07;47.72;;;25.13;;
50393;SDS011;36308;46.312;25.288;2023-02-28T05:46:33;50.25;;;28.25;;
50393;SDS011;36308;46.312;25.288;2023-02-28T05:48:58;60.42;;;33.70;;
50393;SDS011;36308;46.312;25.288;2023-02-28T05:51:25;83.97;;;48.10;;
50393;SDS011;36308;46.312;25.288;2023-02-28T05:53:50;93.78;;;47.95;;
50393;SDS011;36308;46.312;25.288;2023-02-28T05:56:16;101.45;;;54.65;;
50393;SDS011;36308;46.312;25.288;2023-02-28T05:58:41;88.03;;;47.75;;
50393;SDS011;36308;46.312;25.288;2023-02-28T06:06:47;49.70;;;30.48;;
50393;SDS011;36308;46.312;25.288;2023-02-28T06:09:14;57.13;;;34.83;;
50393;SDS011;36308;46.312;25.288;2023-02-28T06:11:40;68.35;;;41.63;;
50393;SDS011;36308;46.312;25.288;2023-02-28T06:14:06;64.63;;;40.17;;
50393;SDS011;36308;46.312;25.288;2023-02-28T06:16:33;49.40;;;30.50;;
50393;SDS011;36308;46.312;25.288;2023-02-28T06:19:02;40.03;;;27.17;;
50393;SDS011;36308;46.312;25.288;2023-02-28T06:21:28;43.38;;;25.92;;
50393;SDS011;36308;46.312;25.288;2023-02-28T06:23:55;41.67;;;24.83;;
50393;SDS011;36308;46.312;25.288;2023-02-28T06:26:21;35.78;;;20.75;;
50393;SDS011;36308;46.312;25.288;2023-02-28T06:28:47;43.13;;;26.40;;
50393;SDS011;36308;46.312;25.288;2023-02-28T06:31:13;44.58;;;25.70;;
50393;SDS011;36308;46.312;25.288;2023-02-28T06:33:41;40.75;;;25.27;;
50393;SDS011;36308;46.312;25.288;2023-02-28T06:36:09;40.42;;;24.45;;
50393;SDS011;36308;46.312;25.288;2023-02-28T06:38:36;44.22;;;26.88;;
50393;SDS011;36308;46.312;25.288;2023-02-28T06:41:02;39.60;;;24.20;;
50393;SDS011;36308;46.312;25.288;2023-02-28T06:43:29;32.28;;;18.98;;
50393;SDS011;36308;46.312;25.288;2023-02-28T06:45:57;29.90;;;18.48;;
50393;SDS011;36308;46.312;25.288;2023-02-28T06:48:25;29.45;;;17.48;;
50393;SDS011;36308;46.312;25.288;2023-02-28T06:50:51;25.77;;;16.60;;
50393;SDS011;36308;46.312;25.288;2023-02-28T06:53:17;28.23;;;17.27;;
50393;SDS011;36308;46.312;25.288;2023-02-28T06:55:43;23.60;;;14.13;;
50393;SDS011;36308;46.312;25.288;2023-02-28T06:58:09;24.13;;;14.98;;
50393;SDS011;36308;46.312;25.288;2023-02-28T07:00:42;26.77;;;14.65;;
50393;SDS011;36308;46.312;25.288;2023-02-28T07:03:09;23.52;;;14.30;;
50393;SDS011;36308;46.312;25.288;2023-02-28T07:05:36;24.38;;;14.50;;
50393;SDS011;36308;46.312;25.288;2023-02-28T07:08:02;32.42;;;22.35;;
50393;SDS011;36308;46.312;25.288;2023-02-28T07:10:29;26.52;;;17.48;;
50393;SDS011;36308;46.312;25.288;2023-02-28T07:12:55;31.00;;;19.55;;
50393;SDS011;36308;46.312;25.288;2023-02-28T07:15:20;21.02;;;13.35;;
50393;SDS011;36308;46.312;25.288;2023-02-28T07:17:46;29.85;;;17.05;;
50393;SDS011;36308;46.312;25.288;2023-02-28T07:20:11;31.17;;;18.20;;
50393;SDS011;36308;46.312;25.288;2023-02-28T07:22:37;28.70;;;17.15;;
50393;SDS011;36308;46.312;25.288;2023-02-28T07:25:04;22.02;;;14.45;;
50393;SDS011;36308;46.312;25.288;2023-02-28T07:27:30;17.73;;;10.55;;
50393;SDS011;36308;46.312;25.288;2023-02-28T07:29:56;18.40;;;10.85;;
50393;SDS011;36308;46.312;25.288;2023-02-28T07:32:22;15.50;;;8.15;;
50393;SDS011;36308;46.312;25.288;2023-02-28T07:34:48;17.00;;;8.38;;
50393;SDS011;36308;46.312;25.288;2023-02-28T07:37:13;23.50;;;16.13;;
50393;SDS011;36308;46.312;25.288;2023-02-28T07:39:39;20.60;;;12.38;;
50393;SDS011;36308;46.312;25.288;2023-02-28T07:42:07;21.20;;;12.93;;
50393;SDS011;36308;46.312;25.288;2023-02-28T07:44:35;21.27;;;12.13;;
50393;SDS011;36308;46.312;25.288;2023-02-28T07:47:05;21.55;;;13.93;;
50393;SDS011;36308;46.312;25.288;2023-02-28T07:49:35;25.30;;;17.40;;
50393;SDS011;36308;46.312;25.288;2023-02-28T07:52:02;19.75;;;14.55;;
50393;SDS011;36308;46.312;25.288;2023-02-28T07:54:31;18.17;;;10.60;;
50393;SDS011;36308;46.312;25.288;2023-02-28T07:56:57;12.20;;;7.93;;
50393;SDS011;36308;46.312;25.288;2023-02-28T07:59:23;11.38;;;7.15;;
50393;SDS011;36308;46.312;25.288;2023-02-28T08:01:49;12.93;;;7.97;;
50393;SDS011;36308;46.312;25.288;2023-02-28T08:04:18;14.02;;;8.05;;
50393;SDS011;36308;46.312;25.288;2023-02-28T08:06:43;21.80;;;13.25;;
50393;SDS011;36308;46.312;25.288;2023-02-28T08:09:09;20.50;;;13.60;;
50393;SDS011;36308;46.312;25.288;2023-02-28T08:11:34;18.90;;;12.40;;
50393;SDS011;36308;46.312;25.288;2023-02-28T08:14:01;11.23;;;7.05;;
50393;SDS011;36308;46.312;25.288;2023-02-28T08:16:26;11.23;;;7.20;;
50393;SDS011;36308;46.312;25.288;2023-02-28T08:18:52;7.80;;;4.32;;
50393;SDS011;36308;46.312;25.288;2023-02-28T08:21:19;9.98;;;4.07;;
50393;SDS011;36308;46.312;25.288;2023-02-28T08:23:49;8.80;;;5.25;;
50393;SDS011;36308;46.312;25.288;2023-02-28T08:26:16;16.35;;;7.70;;
50393;SDS011;36308;46.312;25.288;2023-02-28T08:28:42;10.00;;;6.63;;
50393;SDS011;36308;46.312;25.288;2023-02-28T08:31:10;10.10;;;5.53;;
50393;SDS011;36308;46.312;25.288;2023-02-28T08:33:38;10.80;;;6.90;;
50393;SDS011;36308;46.312;25.288;2023-02-28T08:36:05;7.93;;;5.00;;
50393;SDS011;36308;46.312;25.288;2023-02-28T08:38:31;5.85;;;3.88;;
50393;SDS011;36308;46.312;25.288;2023-02-28T08:40:57;13.02;;;7.28;;
50393;SDS011;36308;46.312;25.288;2023-02-28T08:43:24;9.02;;;4.60;;
50393;SDS011;36308;46.312;25.288;2023-02-28T08:45:53;6.38;;;4.38;;
50393;SDS011;36308;46.312;25.288;2023-02-28T08:48:19;10.23;;;4.55;;
50393;SDS011;36308;46.312;25.288;2023-02-28T08:50:54;7.70;;;4.65;;
50393;SDS011;36308;46.312;25.288;2023-02-28T08:53:24;30.60;;;16.58;;
50393;SDS011;36308;46.312;25.288;2023-02-28T08:55:59;44.38;;;29.00;;
50393;SDS011;36308;46.312;25.288;2023-02-28T08:58:27;11.82;;;7.78;;
50393;SDS011;36308;46.312;25.288;2023-02-28T09:00:53;9.75;;;4.60;;
50393;SDS011;36308;46.312;25.288;2023-02-28T09:03:19;6.43;;;3.83;;
50393;SDS011;36308;46.312;25.288;2023-02-28T09:05:58;7.85;;;4.07;;
50393;SDS011;36308;46.312;25.288;2023-02-28T09:08:25;5.60;;;4.05;;
50393;SDS011;36308;46.312;25.288;2023-02-28T09:10:53;6.70;;;4.38;;
50393;SDS011;36308;46.312;25.288;2023-02-28T09:13:22;7.93;;;4.97;;
50393;SDS011;36308;46.312;25.288;2023-02-28T09:15:47;8.60;;;4.57;;
50393;SDS011;36308;46.312;25.288;2023-02-28T09:18:13;9.15;;;5.15;;
50393;SDS011;36308;46.312;25.288;2023-02-28T09:20:42;17.67;;;7.88;;
50393;SDS011;36308;46.312;25.288;2023-02-28T09:23:09;11.88;;;6.20;;
50393;SDS011;36308;46.312;25.288;2023-02-28T09:25:36;13.23;;;7.82;;
50393;SDS011;36308;46.312;25.288;2023-02-28T09:28:02;15.40;;;7.55;;
50393;SDS011;36308;46.312;25.288;2023-02-28T09:30:29;10.02;;;4.68;;
50393;SDS011;36308;46.312;25.288;2023-02-28T09:32:55;6.97;;;4.07;;
50393;SDS011;36308;46.312;25.288;2023-02-28T09:35:21;10.98;;;4.90;;
50393;SDS011;36308;46.312;25.288;2023-02-28T09:37:49;9.63;;;5.03;;
50393;SDS011;36308;46.312;25.288;2023-02-28T09:40:16;17.88;;;10.77;;
50393;SDS011;36308;46.312;25.288;2023-02-28T09:42:44;11.07;;;7.03;;
50393;SDS011;36308;46.312;25.288;2023-02-28T09:47:46;12.55;;;4.57;;
50393;SDS011;36308;46.312;25.288;2023-02-28T09:52:54;6.57;;;3.85;;
50393;SDS011;36308;46.312;25.288;2023-02-28T09:55:42;15.23;;;7.70;;
50393;SDS011;36308;46.312;25.288;2023-02-28T09:58:44;8.60;;;4.60;;
50393;SDS011;36308;46.312;25.288;2023-02-28T10:01:12;7.05;;;4.28;;
50393;SDS011;36308;46.312;25.288;2023-02-28T10:03:48;6.63;;;3.97;;
50393;SDS011;36308;46.312;25.288;2023-02-28T10:06:30;6.43;;;4.55;;
50393;SDS011;36308;46.312;25.288;2023-02-28T10:09:09;10.95;;;6.82;;
50393;SDS011;36308;46.312;25.288;2023-02-28T10:11:41;9.57;;;4.75;;
50393;SDS011;36308;46.312;25.288;2023-02-28T10:14:15;9.68;;;5.80;;
50393;SDS011;36308;46.312;25.288;2023-02-28T10:25:20;10.82;;;5.65;;
50393;SDS011;36308;46.312;25.288;2023-02-28T10:27:49;9.07;;;6.07;;
50393;SDS011;36308;46.312;25.288;2023-02-28T10:30:18;9.73;;;5.25;;
50393;SDS011;36308;46.312;25.288;2023-02-28T10:32:47;10.63;;;6.00;;
50393;SDS011;36308;46.312;25.288;2023-02-28T10:35:16;14.02;;;7.47;;
50393;SDS011;36308;46.312;25.288;2023-02-28T10:37:48;10.90;;;6.47;;
50393;SDS011;36308;46.312;25.288;2023-02-28T10:42:57;13.77;;;7.65;;
50393;SDS011;36308;46.312;25.288;2023-02-28T10:45:33;8.80;;;5.25;;
50393;SDS011;36308;46.312;25.288;2023-02-28T10:48:03;12.43;;;7.45;;
50393;SDS011;36308;46.312;25.288;2023-02-28T10:55:50;29.65;;;11.80;;
50393;SDS011;36308;46.312;25.288;2023-02-28T11:01:14;9.63;;;6.20;;
50393;SDS011;36308;46.312;25.288;2023-02-28T11:03:42;13.73;;;7.97;;
50393;SDS011;36308;46.312;25.288;2023-02-28T11:06:13;12.20;;;7.50;;
50393;SDS011;36308;46.312;25.288;2023-02-28T11:08:46;13.60;;;7.10;;
50393;SDS011;36308;46.312;25.288;2023-02-28T11:11:20;8.32;;;5.72;;
50393;SDS011;36308;46.312;25.288;2023-02-28T11:13:46;10.32;;;5.80;;
50393;SDS011;36308;46.312;25.288;2023-02-28T11:16:15;8.05;;;5.45;;
50393;SDS011;36308;46.312;25.288;2023-02-28T11:18:51;9.20;;;5.57;;
50393;SDS011;36308;46.312;25.288;2023-02-28T11:21:23;9.27;;;6.13;;
50393;SDS011;36308;46.312;25.288;2023-02-28T11:23:55;12.20;;;6.18;;
50393;SDS011;36308;46.312;25.288;2023-02-28T11:26:36;9.63;;;6.28;;
50393;SDS011;36308;46.312;25.288;2023-02-28T11:29:16;11.50;;;7.10;;
50393;SDS011;36308;46.312;25.288;2023-02-28T11:31:45;13.23;;;7.53;;
50393;SDS011;36308;46.312;25.288;2023-02-28T11:34:35;8.73;;;6.03;;
50393;SDS011;36308;46.312;25.288;2023-02-28T11:37:02;11.82;;;5.75;;
50393;SDS011;36308;46.312;25.288;2023-02-28T11:39:32;9.57;;;5.90;;
50393;SDS011;36308;46.312;25.288;2023-02-28T11:50:32;10.13;;;6.10;;
50393;SDS011;36308;46.312;25.288;2023-02-28T12:12:07;11.30;;;6.15;;
50393;SDS011;36308;46.312;25.288;2023-02-28T12:15:05;9.57;;;6.15;;
50393;SDS011;36308;46.312;25.288;2023-02-28T12:18:05;22.48;;;13.38;;
50393;SDS011;36308;46.312;25.288;2023-02-28T12:32:21;15.68;;;9.25;;
50393;SDS011;36308;46.312;25.288;2023-02-28T12:34:57;17.15;;;9.07;;
50393;SDS011;36308;46.312;25.288;2023-02-28T12:37:37;15.18;;;7.90;;
50393;SDS011;36308;46.312;25.288;2023-02-28T12:40:11;12.30;;;6.75;;
50393;SDS011;36308;46.312;25.288;2023-02-28T12:42:50;13.18;;;8.30;;
50393;SDS011;36308;46.312;25.288;2023-02-28T12:45:23;15.57;;;7.53;;
50393;SDS011;36308;46.312;25.288;2023-02-28T12:47:52;19.45;;;11.05;;
50393;SDS011;36308;46.312;25.288;2023-02-28T12:50:25;27.50;;;14.25;;
50393;SDS011;36308;46.312;25.288;2023-02-28T12:58:19;16.20;;;8.43;;
50393;SDS011;36308;46.312;25.288;2023-02-28T13:01:03;18.02;;;8.00;;
50393;SDS011;36308;46.312;25.288;2023-02-28T13:03:59;12.43;;;8.55;;
50393;SDS011;36308;46.312;25.288;2023-02-28T13:09:32;18.25;;;7.68;;
50393;SDS011;36308;46.312;25.288;2023-02-28T13:11:58;20.85;;;10.07;;
50393;SDS011;36308;46.312;25.288;2023-02-28T13:14:25;32.70;;;16.38;;
50393;SDS011;36308;46.312;25.288;2023-02-28T13:19:37;22.38;;;11.90;;
50393;SDS011;36308;46.312;25.288;2023-02-28T13:22:05;21.23;;;10.75;;
50393;SDS011;36308;46.312;25.288;2023-02-28T13:27:21;18.73;;;10.30;;
50393;SDS011;36308;46.312;25.288;2023-02-28T13:29:56;12.00;;;6.47;;
50393;SDS011;36308;46.312;25.288;2023-02-28T13:32:32;13.27;;;5.40;;
50393;SDS011;36308;46.312;25.288;2023-02-28T13:47:36;7.60;;;5.15;;
50393;SDS011;36308;46.312;25.288;2023-02-28T13:55:50;15.27;;;7.97;;
50393;SDS011;36308;46.312;25.288;2023-02-28T14:09:02;12.57;;;6.88;;
50393;SDS011;36308;46.312;25.288;2023-02-28T14:11:35;14.43;;;7.35;;
50393;SDS011;36308;46.312;25.288;2023-02-28T14:14:04;17.33;;;10.38;;
50393;SDS011;36308;46.312;25.288;2023-02-28T14:16:36;15.23;;;10.20;;
50393;SDS011;36308;46.312;25.288;2023-02-28T14:19:15;20.20;;;11.93;;
50393;SDS011;36308;46.312;25.288;2023-02-28T14:21:53;17.35;;;7.85;;
50393;SDS011;36308;46.312;25.288;2023-02-28T14:29:59;19.83;;;9.82;;
50393;SDS011;36308;46.312;25.288;2023-02-28T14:37:53;14.32;;;8.27;;
50393;SDS011;36308;46.312;25.288;2023-02-28T14:40:41;13.77;;;8.45;;
50393;SDS011;36308;46.312;25.288;2023-02-28T14:43:16;16.75;;;7.72;;
50393;SDS011;36308;46.312;25.288;2023-02-28T14:45:48;17.50;;;9.15;;
50393;SDS011;36308;46.312;25.288;2023-02-28T14:48:25;28.90;;;16.20;;
50393;SDS011;36308;46.312;25.288;2023-02-28T14:50:56;39.20;;;21.88;;
50393;SDS011;36308;46.312;25.288;2023-02-28T14:53:24;25.13;;;15.13;;
50393;SDS011;36308;46.312;25.288;2023-02-28T14:55:55;25.92;;;16.48;;
50393;SDS011;36308;46.312;25.288;2023-02-28T14:58:26;34.05;;;19.05;;
50393;SDS011;36308;46.312;25.288;2023-02-28T15:00:54;32.53;;;18.25;;
50393;SDS011;36308;46.312;25.288;2023-02-28T15:05:56;34.35;;;17.80;;
50393;SDS011;36308;46.312;25.288;2023-02-28T15:08:26;38.60;;;21.73;;
50393;SDS011;36308;46.312;25.288;2023-02-28T15:10:57;43.38;;;25.70;;
50393;SDS011;36308;46.312;25.288;2023-02-28T15:13:29;62.35;;;35.13;;
50393;SDS011;36308;46.312;25.288;2023-02-28T15:16:11;59.80;;;38.10;;
50393;SDS011;36308;46.312;25.288;2023-02-28T15:18:58;47.53;;;32.60;;
50393;SDS011;36308;46.312;25.288;2023-02-28T15:21:30;42.30;;;27.42;;
50393;SDS011;36308;46.312;25.288;2023-02-28T15:24:17;47.20;;;29.90;;
50393;SDS011;36308;46.312;25.288;2023-02-28T15:26:52;52.75;;;33.83;;
50393;SDS011;36308;46.312;25.288;2023-02-28T15:29:23;104.88;;;61.47;;
50393;SDS011;36308;46.312;25.288;2023-02-28T15:32:01;25.02;;;15.30;;
50393;SDS011;36308;46.312;25.288;2023-02-28T15:34:33;13.77;;;9.48;;
50393;SDS011;36308;46.312;25.288;2023-02-28T15:37:01;18.83;;;11.82;;
50393;SDS011;36308;46.312;25.288;2023-02-28T15:39:27;25.13;;;10.55;;
50393;SDS011;36308;46.312;25.288;2023-02-28T15:42:12;19.13;;;11.38;;
50393;SDS011;36308;46.312;25.288;2023-02-28T15:44:44;12.68;;;8.07;;
50393;SDS011;36308;46.312;25.288;2023-02-28T15:47:17;20.73;;;10.40;;
50393;SDS011;36308;46.312;25.288;2023-02-28T15:49:56;30.52;;;16.75;;
50393;SDS011;36308;46.312;25.288;2023-02-28T15:55:12;18.17;;;12.30;;
50393;SDS011;36308;46.312;25.288;2023-02-28T15:57:48;21.00;;;13.23;;
50393;SDS011;36308;46.312;25.288;2023-02-28T16:00:21;31.55;;;19.40;;
50393;SDS011;36308;46.312;25.288;2023-02-28T16:02:48;28.90;;;18.55;;
50393;SDS011;36308;46.312;25.288;2023-02-28T16:05:19;32.70;;;20.10;;
50393;SDS011;36308;46.312;25.288;2023-02-28T16:07:59;57.17;;;33.42;;
50393;SDS011;36308;46.312;25.288;2023-02-28T16:10:40;38.67;;;24.50;;
50393;SDS011;36308;46.312;25.288;2023-02-28T16:13:05;60.63;;;34.83;;
50393;SDS011;36308;46.312;25.288;2023-02-28T16:15:34;57.83;;;31.63;;
50393;SDS011;36308;46.312;25.288;2023-02-28T16:18:07;47.53;;;30.48;;
50393;SDS011;36308;46.312;25.288;2023-02-28T16:20:34;59.90;;;41.70;;
50393;SDS011;36308;46.312;25.288;2023-02-28T16:22:59;51.50;;;35.50;;
50393;SDS011;36308;46.312;25.288;2023-02-28T16:25:48;61.38;;;39.63;;
50393;SDS011;36308;46.312;25.288;2023-02-28T16:28:35;58.72;;;37.22;;
50393;SDS011;36308;46.312;25.288;2023-02-28T16:31:01;66.10;;;40.53;;
50393;SDS011;36308;46.312;25.288;2023-02-28T16:33:27;57.55;;;35.40;;
50393;SDS011;36308;46.312;25.288;2023-02-28T16:35:53;55.60;;;35.75;;
50393;SDS011;36308;46.312;25.288;2023-02-28T16:38:19;79.72;;;47.33;;
50393;SDS011;36308;46.312;25.288;2023-02-28T16:40:45;128.45;;;75.93;;
50393;SDS011;36308;46.312;25.288;2023-02-28T16:43:15;130.30;;;75.75;;
50393;SDS011;36308;46.312;25.288;2023-02-28T16:45:44;127.88;;;74.53;;
50393;SDS011;36308;46.312;25.288;2023-02-28T16:48:14;65.60;;;38.95;;
50393;SDS011;36308;46.312;25.288;2023-02-28T16:50:41;53.40;;;34.58;;
50393;SDS011;36308;46.312;25.288;2023-02-28T16:53:07;49.35;;;30.33;;
50393;SDS011;36308;46.312;25.288;2023-02-28T16:55:33;56.30;;;34.80;;
50393;SDS011;36308;46.312;25.288;2023-02-28T16:58:00;57.55;;;35.22;;
50393;SDS011;36308;46.312;25.288;2023-02-28T17:00:28;76.97;;;47.42;;
50393;SDS011;36308;46.312;25.288;2023-02-28T17:02:56;95.97;;;59.67;;
50393;SDS011;36308;46.312;25.288;2023-02-28T17:05:22;56.25;;;34.10;;
50393;SDS011;36308;46.312;25.288;2023-02-28T17:07:49;41.03;;;25.80;;
50393;SDS011;36308;46.312;25.288;2023-02-28T17:10:16;44.70;;;27.25;;
50393;SDS011;36308;46.312;25.288;2023-02-28T17:12:46;44.83;;;29.35;;
50393;SDS011;36308;46.312;25.288;2023-02-28T17:15:13;39.95;;;26.60;;
50393;SDS011;36308;46.312;25.288;2023-02-28T17:17:41;39.83;;;23.88;;